sensor_id;sensor_type;location;lat;lon;timestamp;P1;durP1;ratioP1;P2;durP2;ratioP2
65477;SDS011;53678;39.642;22.430;2023-06-14T00:00:52;9.63;;;4.50;;
65477;SDS011;53678;39.642;22.430;2023-06-14T00:03:18;7.13;;;4.28;;
65477;SDS011;53678;39.642;22.430;2023-06-14T00:05:47;10.40;;;4.68;;
65477;SDS011;53678;39.642;22.430;2023-06-14T00:08:13;11.32;;;5.28;;
65477;SDS011;53678;39.642;22.430;2023-06-14T00:10:40;9.10;;;5.00;;
65477;SDS011;53678;39.642;22.430;2023-06-14T00:13:07;12.07;;;5.07;;
65477;SDS011;53678;39.642;22.430;2023-06-14T00:15:34;8.95;;;5.00;;
65477;SDS011;53678;39.642;22.430;2023-06-14T00:18:00;10.13;;;5.28;;
65477;SDS011;53678;39.642;22.430;2023-06-14T00:20:29;11.82;;;5.13;;
65477;SDS011;53678;39.642;22.430;2023-06-14T00:23:00;9.38;;;4.53;;
65477;SDS011;53678;39.642;22.430;2023-06-14T00:25:26;11.73;;;4.97;;
65477;SDS011;53678;39.642;22.430;2023-06-14T00:27:53;14.57;;;5.15;;
65477;SDS011;53678;39.642;22.430;2023-06-14T00:30:19;10.13;;;4.82;;
65477;SDS011;53678;39.642;22.430;2023-06-14T00:32:46;9.70;;;4.80;;
65477;SDS011;53678;39.642;22.430;2023-06-14T00:35:12;8.05;;;4.10;;
65477;SDS011;53678;39.642;22.430;2023-06-14T00:37:38;5.57;;;4.00;;
65477;SDS011;53678;39.642;22.430;2023-06-14T00:40:04;6.82;;;4.13;;
65477;SDS011;53678;39.642;22.430;2023-06-14T00:42:32;9.30;;;4.57;;
65477;SDS011;53678;39.642;22.430;2023-06-14T00:44:57;8.77;;;4.50;;
65477;SDS011;53678;39.642;22.430;2023-06-14T00:47:24;12.15;;;5.10;;
65477;SDS011;53678;39.642;22.430;2023-06-14T00:49:51;10.75;;;4.78;;
65477;SDS011;53678;39.642;22.430;2023-06-14T00:52:19;7.55;;;4.60;;
65477;SDS011;53678;39.642;22.430;2023-06-14T00:54:46;6.50;;;4.00;;
65477;SDS011;53678;39.642;22.430;2023-06-14T00:57:13;8.65;;;4.97;;
65477;SDS011;53678;39.642;22.430;2023-06-14T01:02:10;6.07;;;3.97;;
65477;SDS011;53678;39.642;22.430;2023-06-14T01:04:36;5.88;;;4.22;;
65477;SDS011;53678;39.642;22.430;2023-06-14T01:12:21;8.65;;;5.45;;
65477;SDS011;53678;39.642;22.430;2023-06-14T01:14:54;8.13;;;5.32;;
65477;SDS011;53678;39.642;22.430;2023-06-14T01:17:22;9.13;;;5.43;;
65477;SDS011;53678;39.642;22.430;2023-06-14T01:19:50;9.85;;;5.30;;
65477;SDS011;53678;39.642;22.430;2023-06-14T01:22:26;13.18;;;6.30;;
65477;SDS011;53678;39.642;22.430;2023-06-14T01:24:54;12.10;;;7.15;;
65477;SDS011;53678;39.642;22.430;2023-06-14T01:27:26;11.30;;;7.72;;
65477;SDS011;53678;39.642;22.430;2023-06-14T01:29:57;11.95;;;7.40;;
65477;SDS011;53678;39.642;22.430;2023-06-14T01:32:24;10.85;;;7.40;;
65477;SDS011;53678;39.642;22.430;2023-06-14T01:34:53;10.25;;;7.43;;
65477;SDS011;53678;39.642;22.430;2023-06-14T01:37:19;9.48;;;6.63;;
65477;SDS011;53678;39.642;22.430;2023-06-14T01:39:47;11.68;;;7.72;;
65477;SDS011;53678;39.642;22.430;2023-06-14T01:42:18;8.20;;;6.53;;
65477;SDS011;53678;39.642;22.430;2023-06-14T01:44:44;9.30;;;7.45;;
65477;SDS011;53678;39.642;22.430;2023-06-14T01:47:11;10.50;;;7.63;;
65477;SDS011;53678;39.642;22.430;2023-06-14T01:49:38;10.38;;;7.22;;
65477;SDS011;53678;39.642;22.430;2023-06-14T01:52:04;10.52;;;6.70;;
65477;SDS011;53678;39.642;22.430;2023-06-14T01:54:31;9.98;;;7.18;;
65477;SDS011;53678;39.642;22.430;2023-06-14T01:56:57;10.07;;;7.00;;
65477;SDS011;53678;39.642;22.430;2023-06-14T01:59:22;10.20;;;6.55;;
65477;SDS011;53678;39.642;22.430;2023-06-14T02:01:48;13.98;;;7.07;;
65477;SDS011;53678;39.642;22.430;2023-06-14T02:04:14;10.82;;;7.03;;
65477;SDS011;53678;39.642;22.430;2023-06-14T02:06:39;11.38;;;8.77;;
65477;SDS011;53678;39.642;22.430;2023-06-14T02:09:05;11.75;;;9.48;;
65477;SDS011;53678;39.642;22.430;2023-06-14T02:11:31;11.45;;;7.50;;
65477;SDS011;53678;39.642;22.430;2023-06-14T02:13:56;11.48;;;7.82;;
65477;SDS011;53678;39.642;22.430;2023-06-14T02:16:25;10.43;;;7.70;;
65477;SDS011;53678;39.642;22.430;2023-06-14T02:18:53;10.25;;;7.88;;
65477;SDS011;53678;39.642;22.430;2023-06-14T02:21:18;10.68;;;6.00;;
65477;SDS011;53678;39.642;22.430;2023-06-14T02:23:45;16.13;;;5.85;;
65477;SDS011;53678;39.642;22.430;2023-06-14T02:26:11;10.07;;;5.32;;
65477;SDS011;53678;39.642;22.430;2023-06-14T02:28:36;8.38;;;5.28;;
65477;SDS011;53678;39.642;22.430;2023-06-14T02:31:02;10.05;;;5.38;;
65477;SDS011;53678;39.642;22.430;2023-06-14T02:33:28;8.50;;;5.05;;
65477;SDS011;53678;39.642;22.430;2023-06-14T02:35:54;9.43;;;5.45;;
65477;SDS011;53678;39.642;22.430;2023-06-14T02:38:19;14.32;;;6.47;;
65477;SDS011;53678;39.642;22.430;2023-06-14T02:40:47;11.07;;;6.35;;
65477;SDS011;53678;39.642;22.430;2023-06-14T02:43:14;12.35;;;6.10;;
65477;SDS011;53678;39.642;22.430;2023-06-14T02:45:43;8.75;;;5.70;;
65477;SDS011;53678;39.642;22.430;2023-06-14T02:48:08;14.05;;;7.78;;
65477;SDS011;53678;39.642;22.430;2023-06-14T02:50:35;19.92;;;7.93;;
65477;SDS011;53678;39.642;22.430;2023-06-14T02:53:00;12.35;;;8.00;;
65477;SDS011;53678;39.642;22.430;2023-06-14T02:55:28;14.07;;;7.68;;
65477;SDS011;53678;39.642;22.430;2023-06-14T02:57:54;11.55;;;8.27;;
65477;SDS011;53678;39.642;22.430;2023-06-14T03:00:19;14.63;;;9.00;;
65477;SDS011;53678;39.642;22.430;2023-06-14T03:02:46;11.93;;;7.97;;
65477;SDS011;53678;39.642;22.430;2023-06-14T03:05:13;14.07;;;9.38;;
65477;SDS011;53678;39.642;22.430;2023-06-14T03:07:40;17.00;;;9.88;;
65477;SDS011;53678;39.642;22.430;2023-06-14T03:10:09;17.40;;;8.95;;
65477;SDS011;53678;39.642;22.430;2023-06-14T03:12:41;16.20;;;10.20;;
65477;SDS011;53678;39.642;22.430;2023-06-14T03:15:09;13.27;;;10.05;;
65477;SDS011;53678;39.642;22.430;2023-06-14T03:17:39;16.55;;;9.48;;
65477;SDS011;53678;39.642;22.430;2023-06-14T03:20:10;13.07;;;9.50;;
65477;SDS011;53678;39.642;22.430;2023-06-14T03:22:36;11.48;;;9.23;;
65477;SDS011;53678;39.642;22.430;2023-06-14T03:25:02;14.85;;;8.82;;
65477;SDS011;53678;39.642;22.430;2023-06-14T03:27:31;14.82;;;8.55;;
65477;SDS011;53678;39.642;22.430;2023-06-14T03:29:58;17.20;;;8.20;;
65477;SDS011;53678;39.642;22.430;2023-06-14T03:32:25;16.65;;;7.57;;
65477;SDS011;53678;39.642;22.430;2023-06-14T03:34:50;12.65;;;7.50;;
65477;SDS011;53678;39.642;22.430;2023-06-14T03:37:20;12.45;;;6.60;;
65477;SDS011;53678;39.642;22.430;2023-06-14T03:39:46;9.18;;;6.47;;
65477;SDS011;53678;39.642;22.430;2023-06-14T03:42:17;11.32;;;6.57;;
65477;SDS011;53678;39.642;22.430;2023-06-14T03:44:44;15.27;;;7.57;;
65477;SDS011;53678;39.642;22.430;2023-06-14T03:47:10;15.40;;;7.15;;
65477;SDS011;53678;39.642;22.430;2023-06-14T03:49:36;12.60;;;7.65;;
65477;SDS011;53678;39.642;22.430;2023-06-14T03:52:02;15.30;;;7.18;;
65477;SDS011;53678;39.642;22.430;2023-06-14T03:54:30;20.33;;;8.57;;
65477;SDS011;53678;39.642;22.430;2023-06-14T03:56:58;17.10;;;8.23;;
65477;SDS011;53678;39.642;22.430;2023-06-14T03:59:24;13.02;;;7.55;;
65477;SDS011;53678;39.642;22.430;2023-06-14T04:01:51;21.48;;;7.18;;
65477;SDS011;53678;39.642;22.430;2023-06-14T04:04:19;15.70;;;7.10;;
65477;SDS011;53678;39.642;22.430;2023-06-14T04:06:46;10.07;;;6.05;;
65477;SDS011;53678;39.642;22.430;2023-06-14T04:09:14;13.57;;;6.50;;
65477;SDS011;53678;39.642;22.430;2023-06-14T04:11:40;19.08;;;6.90;;
65477;SDS011;53678;39.642;22.430;2023-06-14T04:14:06;18.95;;;7.70;;
65477;SDS011;53678;39.642;22.430;2023-06-14T04:16:32;15.02;;;6.85;;
65477;SDS011;53678;39.642;22.430;2023-06-14T04:19:00;12.13;;;6.60;;
65477;SDS011;53678;39.642;22.430;2023-06-14T04:21:27;14.05;;;8.02;;
65477;SDS011;53678;39.642;22.430;2023-06-14T04:23:55;11.35;;;6.70;;
65477;SDS011;53678;39.642;22.430;2023-06-14T04:26:24;13.07;;;7.47;;
65477;SDS011;53678;39.642;22.430;2023-06-14T04:28:56;10.68;;;7.40;;
65477;SDS011;53678;39.642;22.430;2023-06-14T04:31:23;12.60;;;7.03;;
65477;SDS011;53678;39.642;22.430;2023-06-14T04:33:52;12.20;;;6.93;;
65477;SDS011;53678;39.642;22.430;2023-06-14T04:36:20;13.88;;;7.05;;
65477;SDS011;53678;39.642;22.430;2023-06-14T04:38:49;17.42;;;7.13;;
65477;SDS011;53678;39.642;22.430;2023-06-14T04:41:21;17.73;;;7.67;;
65477;SDS011;53678;39.642;22.430;2023-06-14T04:43:48;8.63;;;6.60;;
65477;SDS011;53678;39.642;22.430;2023-06-14T04:46:15;14.13;;;7.00;;
65477;SDS011;53678;39.642;22.430;2023-06-14T04:48:42;14.35;;;6.65;;
65477;SDS011;53678;39.642;22.430;2023-06-14T04:51:11;12.52;;;6.53;;
65477;SDS011;53678;39.642;22.430;2023-06-14T04:53:38;12.18;;;6.28;;
65477;SDS011;53678;39.642;22.430;2023-06-14T04:56:04;9.32;;;5.93;;
65477;SDS011;53678;39.642;22.430;2023-06-14T04:58:31;15.90;;;7.10;;
65477;SDS011;53678;39.642;22.430;2023-06-14T05:00:58;17.75;;;7.13;;
65477;SDS011;53678;39.642;22.430;2023-06-14T05:03:28;16.13;;;7.88;;
65477;SDS011;53678;39.642;22.430;2023-06-14T05:05:56;15.00;;;7.57;;
65477;SDS011;53678;39.642;22.430;2023-06-14T05:08:22;16.10;;;6.80;;
65477;SDS011;53678;39.642;22.430;2023-06-14T05:10:50;17.00;;;6.63;;
65477;SDS011;53678;39.642;22.430;2023-06-14T05:13:16;12.80;;;6.75;;
65477;SDS011;53678;39.642;22.430;2023-06-14T05:15:44;12.38;;;6.13;;
65477;SDS011;53678;39.642;22.430;2023-06-14T05:18:10;11.02;;;5.88;;
65477;SDS011;53678;39.642;22.430;2023-06-14T05:20:35;11.98;;;6.35;;
65477;SDS011;53678;39.642;22.430;2023-06-14T05:23:02;23.02;;;6.22;;
65477;SDS011;53678;39.642;22.430;2023-06-14T05:25:28;7.88;;;5.10;;
65477;SDS011;53678;39.642;22.430;2023-06-14T05:27:54;7.85;;;4.70;;
65477;SDS011;53678;39.642;22.430;2023-06-14T05:30:20;10.75;;;4.60;;
65477;SDS011;53678;39.642;22.430;2023-06-14T05:32:45;11.48;;;4.63;;
65477;SDS011;53678;39.642;22.430;2023-06-14T05:35:11;7.13;;;5.20;;
65477;SDS011;53678;39.642;22.430;2023-06-14T05:37:37;8.18;;;4.57;;
65477;SDS011;53678;39.642;22.430;2023-06-14T05:40:03;10.32;;;5.57;;
65477;SDS011;53678;39.642;22.430;2023-06-14T05:42:34;10.52;;;4.50;;
65477;SDS011;53678;39.642;22.430;2023-06-14T05:44:59;14.77;;;5.47;;
65477;SDS011;53678;39.642;22.430;2023-06-14T05:47:26;7.70;;;4.40;;
65477;SDS011;53678;39.642;22.430;2023-06-14T05:49:53;9.27;;;4.30;;
65477;SDS011;53678;39.642;22.430;2023-06-14T05:52:19;15.48;;;4.57;;
65477;SDS011;53678;39.642;22.430;2023-06-14T05:54:47;8.05;;;4.00;;
65477;SDS011;53678;39.642;22.430;2023-06-14T05:57:13;8.00;;;3.33;;
65477;SDS011;53678;39.642;22.430;2023-06-14T05:59:38;6.80;;;3.85;;
65477;SDS011;53678;39.642;22.430;2023-06-14T06:02:05;8.80;;;4.80;;
65477;SDS011;53678;39.642;22.430;2023-06-14T06:04:31;12.18;;;4.60;;
65477;SDS011;53678;39.642;22.430;2023-06-14T06:06:58;7.82;;;4.10;;
65477;SDS011;53678;39.642;22.430;2023-06-14T06:09:23;14.10;;;4.50;;
65477;SDS011;53678;39.642;22.430;2023-06-14T06:11:50;8.77;;;4.50;;
65477;SDS011;53678;39.642;22.430;2023-06-14T06:14:16;11.73;;;4.30;;
65477;SDS011;53678;39.642;22.430;2023-06-14T06:16:43;10.70;;;3.70;;
65477;SDS011;53678;39.642;22.430;2023-06-14T06:19:08;7.80;;;3.85;;
65477;SDS011;53678;39.642;22.430;2023-06-14T06:21:34;5.88;;;3.58;;
65477;SDS011;53678;39.642;22.430;2023-06-14T06:24:02;5.80;;;3.50;;
65477;SDS011;53678;39.642;22.430;2023-06-14T06:26:31;6.72;;;3.65;;
65477;SDS011;53678;39.642;22.430;2023-06-14T06:28:57;7.35;;;3.78;;
65477;SDS011;53678;39.642;22.430;2023-06-14T06:31:24;7.90;;;3.90;;
65477;SDS011;53678;39.642;22.430;2023-06-14T06:33:53;7.95;;;4.00;;
65477;SDS011;53678;39.642;22.430;2023-06-14T06:36:19;8.00;;;3.90;;
65477;SDS011;53678;39.642;22.430;2023-06-14T06:38:47;11.13;;;4.22;;
65477;SDS011;53678;39.642;22.430;2023-06-14T06:41:14;8.65;;;4.05;;
65477;SDS011;53678;39.642;22.430;2023-06-14T06:43:39;11.75;;;4.38;;
65477;SDS011;53678;39.642;22.430;2023-06-14T06:46:09;5.95;;;3.80;;
65477;SDS011;53678;39.642;22.430;2023-06-14T06:48:36;7.93;;;4.28;;
65477;SDS011;53678;39.642;22.430;2023-06-14T06:51:01;5.78;;;3.50;;
65477;SDS011;53678;39.642;22.430;2023-06-14T06:53:27;10.73;;;4.60;;
65477;SDS011;53678;39.642;22.430;2023-06-14T06:55:53;12.57;;;3.92;;
65477;SDS011;53678;39.642;22.430;2023-06-14T06:58:20;15.63;;;4.38;;
65477;SDS011;53678;39.642;22.430;2023-06-14T07:00:47;7.28;;;3.53;;
65477;SDS011;53678;39.642;22.430;2023-06-14T07:03:14;6.63;;;3.58;;
65477;SDS011;53678;39.642;22.430;2023-06-14T07:05:39;8.05;;;4.38;;
65477;SDS011;53678;39.642;22.430;2023-06-14T07:08:05;8.20;;;3.38;;
65477;SDS011;53678;39.642;22.430;2023-06-14T07:10:34;11.20;;;2.92;;
65477;SDS011;53678;39.642;22.430;2023-06-14T07:12:59;6.28;;;3.38;;
65477;SDS011;53678;39.642;22.430;2023-06-14T07:15:25;7.63;;;3.65;;
65477;SDS011;53678;39.642;22.430;2023-06-14T07:17:52;7.53;;;3.08;;
65477;SDS011;53678;39.642;22.430;2023-06-14T07:20:18;7.78;;;4.10;;
65477;SDS011;53678;39.642;22.430;2023-06-14T07:22:44;7.40;;;3.15;;
65477;SDS011;53678;39.642;22.430;2023-06-14T07:25:10;5.90;;;3.20;;
65477;SDS011;53678;39.642;22.430;2023-06-14T07:27:40;6.82;;;3.20;;
65477;SDS011;53678;39.642;22.430;2023-06-14T07:30:07;6.50;;;3.42;;
65477;SDS011;53678;39.642;22.430;2023-06-14T07:32:33;8.73;;;3.83;;
65477;SDS011;53678;39.642;22.430;2023-06-14T07:35:02;5.18;;;3.20;;
65477;SDS011;53678;39.642;22.430;2023-06-14T07:37:28;6.07;;;3.63;;
65477;SDS011;53678;39.642;22.430;2023-06-14T07:39:54;6.68;;;3.50;;
65477;SDS011;53678;39.642;22.430;2023-06-14T07:42:20;11.20;;;3.80;;
65477;SDS011;53678;39.642;22.430;2023-06-14T07:44:47;6.30;;;2.97;;
65477;SDS011;53678;39.642;22.430;2023-06-14T07:47:13;11.40;;;3.42;;
65477;SDS011;53678;39.642;22.430;2023-06-14T07:49:38;5.18;;;2.67;;
65477;SDS011;53678;39.642;22.430;2023-06-14T07:52:06;6.47;;;2.78;;
65477;SDS011;53678;39.642;22.430;2023-06-14T07:54:32;6.00;;;2.70;;
65477;SDS011;53678;39.642;22.430;2023-06-14T07:56:58;4.13;;;2.65;;
65477;SDS011;53678;39.642;22.430;2023-06-14T07:59:27;6.82;;;2.75;;
65477;SDS011;53678;39.642;22.430;2023-06-14T08:01:52;7.88;;;3.67;;
65477;SDS011;53678;39.642;22.430;2023-06-14T08:04:18;6.47;;;3.50;;
65477;SDS011;53678;39.642;22.430;2023-06-14T08:06:44;6.20;;;3.05;;
65477;SDS011;53678;39.642;22.430;2023-06-14T08:09:11;6.70;;;3.33;;
65477;SDS011;53678;39.642;22.430;2023-06-14T08:11:38;7.70;;;3.13;;
65477;SDS011;53678;39.642;22.430;2023-06-14T08:14:03;8.10;;;3.17;;
65477;SDS011;53678;39.642;22.430;2023-06-14T08:16:30;5.47;;;3.03;;
65477;SDS011;53678;39.642;22.430;2023-06-14T08:18:58;5.15;;;2.60;;
65477;SDS011;53678;39.642;22.430;2023-06-14T08:21:23;4.60;;;2.60;;
65477;SDS011;53678;39.642;22.430;2023-06-14T08:23:51;6.18;;;3.00;;
65477;SDS011;53678;39.642;22.430;2023-06-14T08:26:18;6.85;;;3.17;;
65477;SDS011;53678;39.642;22.430;2023-06-14T08:28:44;3.97;;;3.08;;
65477;SDS011;53678;39.642;22.430;2023-06-14T08:31:10;10.43;;;3.13;;
65477;SDS011;53678;39.642;22.430;2023-06-14T08:33:36;5.35;;;2.90;;
65477;SDS011;53678;39.642;22.430;2023-06-14T08:36:02;6.38;;;3.05;;
65477;SDS011;53678;39.642;22.430;2023-06-14T08:38:28;7.32;;;3.40;;
65477;SDS011;53678;39.642;22.430;2023-06-14T08:40:56;6.60;;;2.70;;
65477;SDS011;53678;39.642;22.430;2023-06-14T08:43:23;7.82;;;3.38;;
65477;SDS011;53678;39.642;22.430;2023-06-14T08:45:50;4.88;;;2.80;;
65477;SDS011;53678;39.642;22.430;2023-06-14T08:48:23;8.35;;;3.50;;
65477;SDS011;53678;39.642;22.430;2023-06-14T08:50:52;13.60;;;5.07;;
65477;SDS011;53678;39.642;22.430;2023-06-14T08:53:28;5.88;;;2.80;;
65477;SDS011;53678;39.642;22.430;2023-06-14T08:56:01;16.17;;;5.65;;
65477;SDS011;53678;39.642;22.430;2023-06-14T08:58:33;7.68;;;2.78;;
65477;SDS011;53678;39.642;22.430;2023-06-14T09:01:00;6.03;;;3.03;;
65477;SDS011;53678;39.642;22.430;2023-06-14T09:03:29;7.63;;;3.10;;
65477;SDS011;53678;39.642;22.430;2023-06-14T09:05:58;7.50;;;2.90;;
65477;SDS011;53678;39.642;22.430;2023-06-14T09:08:27;6.57;;;2.90;;
65477;SDS011;53678;39.642;22.430;2023-06-14T09:10:57;3.58;;;2.55;;
65477;SDS011;53678;39.642;22.430;2023-06-14T09:13:26;6.18;;;2.90;;
65477;SDS011;53678;39.642;22.430;2023-06-14T09:15:52;6.40;;;2.65;;
65477;SDS011;53678;39.642;22.430;2023-06-14T09:18:18;4.40;;;2.20;;
65477;SDS011;53678;39.642;22.430;2023-06-14T09:20:45;4.35;;;2.40;;
65477;SDS011;53678;39.642;22.430;2023-06-14T09:23:12;7.22;;;2.85;;
65477;SDS011;53678;39.642;22.430;2023-06-14T09:25:42;7.03;;;2.70;;
65477;SDS011;53678;39.642;22.430;2023-06-14T09:28:11;4.30;;;2.47;;
65477;SDS011;53678;39.642;22.430;2023-06-14T09:30:39;4.40;;;2.53;;
65477;SDS011;53678;39.642;22.430;2023-06-14T09:33:05;4.32;;;2.50;;
65477;SDS011;53678;39.642;22.430;2023-06-14T09:35:34;5.03;;;2.50;;
65477;SDS011;53678;39.642;22.430;2023-06-14T09:38:01;3.55;;;2.63;;
65477;SDS011;53678;39.642;22.430;2023-06-14T09:40:27;6.00;;;2.80;;
65477;SDS011;53678;39.642;22.430;2023-06-14T09:42:56;5.00;;;2.70;;
65477;SDS011;53678;39.642;22.430;2023-06-14T09:45:23;6.00;;;2.78;;
65477;SDS011;53678;39.642;22.430;2023-06-14T09:47:49;7.55;;;2.97;;
65477;SDS011;53678;39.642;22.430;2023-06-14T09:50:17;4.20;;;2.60;;
65477;SDS011;53678;39.642;22.430;2023-06-14T09:52:43;4.15;;;2.55;;
65477;SDS011;53678;39.642;22.430;2023-06-14T09:55:14;6.05;;;2.75;;
65477;SDS011;53678;39.642;22.430;2023-06-14T09:57:41;4.43;;;2.40;;
65477;SDS011;53678;39.642;22.430;2023-06-14T10:00:11;5.93;;;2.70;;
65477;SDS011;53678;39.642;22.430;2023-06-14T10:02:39;4.97;;;2.60;;
65477;SDS011;53678;39.642;22.430;2023-06-14T10:05:12;7.22;;;2.80;;
65477;SDS011;53678;39.642;22.430;2023-06-14T10:08:04;4.13;;;2.75;;
65477;SDS011;53678;39.642;22.430;2023-06-14T10:10:33;5.10;;;2.70;;
65477;SDS011;53678;39.642;22.430;2023-06-14T10:12:59;3.63;;;2.33;;
65477;SDS011;53678;39.642;22.430;2023-06-14T10:15:38;6.88;;;2.40;;
65477;SDS011;53678;39.642;22.430;2023-06-14T10:18:11;7.22;;;2.60;;
65477;SDS011;53678;39.642;22.430;2023-06-14T10:23:56;7.25;;;2.67;;
65477;SDS011;53678;39.642;22.430;2023-06-14T10:26:30;4.15;;;2.45;;
65477;SDS011;53678;39.642;22.430;2023-06-14T10:29:00;4.07;;;2.20;;
65477;SDS011;53678;39.642;22.430;2023-06-14T10:31:41;6.22;;;2.53;;
65477;SDS011;53678;39.642;22.430;2023-06-14T10:34:22;3.92;;;2.70;;
65477;SDS011;53678;39.642;22.430;2023-06-14T10:37:06;4.45;;;2.65;;
65477;SDS011;53678;39.642;22.430;2023-06-14T10:39:37;4.22;;;2.47;;
65477;SDS011;53678;39.642;22.430;2023-06-14T10:42:06;8.43;;;3.28;;
65477;SDS011;53678;39.642;22.430;2023-06-14T10:44:33;6.55;;;2.60;;
65477;SDS011;53678;39.642;22.430;2023-06-14T10:47:22;3.30;;;2.35;;
65477;SDS011;53678;39.642;22.430;2023-06-14T10:49:54;3.95;;;2.13;;
65477;SDS011;53678;39.642;22.430;2023-06-14T10:52:26;6.10;;;2.38;;
65477;SDS011;53678;39.642;22.430;2023-06-14T10:55:01;5.13;;;2.50;;
65477;SDS011;53678;39.642;22.430;2023-06-14T11:00:16;3.63;;;2.10;;
65477;SDS011;53678;39.642;22.430;2023-06-14T11:08:39;3.20;;;2.13;;
65477;SDS011;53678;39.642;22.430;2023-06-14T11:11:06;6.70;;;2.45;;
65477;SDS011;53678;39.642;22.430;2023-06-14T11:13:36;4.25;;;2.85;;
65477;SDS011;53678;39.642;22.430;2023-06-14T11:16:09;4.50;;;2.78;;
65477;SDS011;53678;39.642;22.430;2023-06-14T11:18:37;4.82;;;2.60;;
65477;SDS011;53678;39.642;22.430;2023-06-14T11:21:03;3.38;;;2.33;;
65477;SDS011;53678;39.642;22.430;2023-06-14T11:23:33;3.78;;;2.47;;
65477;SDS011;53678;39.642;22.430;2023-06-14T11:25:59;5.00;;;2.60;;
65477;SDS011;53678;39.642;22.430;2023-06-14T11:28:35;8.27;;;3.10;;
65477;SDS011;53678;39.642;22.430;2023-06-14T11:31:02;6.22;;;3.00;;
65477;SDS011;53678;39.642;22.430;2023-06-14T11:33:30;4.07;;;2.13;;
65477;SDS011;53678;39.642;22.430;2023-06-14T11:35:56;4.05;;;2.35;;
65477;SDS011;53678;39.642;22.430;2023-06-14T11:38:21;5.15;;;3.05;;
65477;SDS011;53678;39.642;22.430;2023-06-14T11:40:47;4.80;;;2.50;;
65477;SDS011;53678;39.642;22.430;2023-06-14T11:43:13;4.90;;;2.35;;
65477;SDS011;53678;39.642;22.430;2023-06-14T11:45:39;5.82;;;2.33;;
65477;SDS011;53678;39.642;22.430;2023-06-14T11:48:06;5.28;;;2.80;;
65477;SDS011;53678;39.642;22.430;2023-06-14T11:50:31;4.30;;;2.25;;
65477;SDS011;53678;39.642;22.430;2023-06-14T11:52:59;6.00;;;2.50;;
65477;SDS011;53678;39.642;22.430;2023-06-14T11:55:29;5.00;;;2.55;;
65477;SDS011;53678;39.642;22.430;2023-06-14T11:57:54;6.80;;;2.60;;
65477;SDS011;53678;39.642;22.430;2023-06-14T12:00:27;3.40;;;2.50;;
65477;SDS011;53678;39.642;22.430;2023-06-14T12:02:56;4.25;;;2.30;;
65477;SDS011;53678;39.642;22.430;2023-06-14T12:05:22;4.35;;;2.83;;
65477;SDS011;53678;39.642;22.430;2023-06-14T12:07:49;4.82;;;2.50;;
65477;SDS011;53678;39.642;22.430;2023-06-14T12:10:15;5.80;;;2.75;;
65477;SDS011;53678;39.642;22.430;2023-06-14T12:12:42;4.50;;;2.28;;
65477;SDS011;53678;39.642;22.430;2023-06-14T12:15:08;4.45;;;2.65;;
65477;SDS011;53678;39.642;22.430;2023-06-14T12:17:38;4.65;;;2.40;;
65477;SDS011;53678;39.642;22.430;2023-06-14T12:20:08;6.90;;;2.97;;
65477;SDS011;53678;39.642;22.430;2023-06-14T12:27:57;4.63;;;2.42;;
65477;SDS011;53678;39.642;22.430;2023-06-14T12:30:23;2.60;;;2.10;;
65477;SDS011;53678;39.642;22.430;2023-06-14T12:32:49;7.53;;;2.75;;
65477;SDS011;53678;39.642;22.430;2023-06-14T12:35:17;4.63;;;2.70;;
65477;SDS011;53678;39.642;22.430;2023-06-14T12:37:45;6.03;;;2.25;;
65477;SDS011;53678;39.642;22.430;2023-06-14T12:40:11;3.33;;;2.33;;
65477;SDS011;53678;39.642;22.430;2023-06-14T12:42:39;3.45;;;2.50;;
65477;SDS011;53678;39.642;22.430;2023-06-14T12:45:05;3.80;;;2.50;;
65477;SDS011;53678;39.642;22.430;2023-06-14T12:47:31;3.75;;;2.33;;
65477;SDS011;53678;39.642;22.430;2023-06-14T12:49:58;6.28;;;2.75;;
65477;SDS011;53678;39.642;22.430;2023-06-14T12:52:23;6.05;;;3.13;;
65477;SDS011;53678;39.642;22.430;2023-06-14T12:54:49;7.95;;;3.63;;
65477;SDS011;53678;39.642;22.430;2023-06-14T12:57:15;4.68;;;2.30;;
65477;SDS011;53678;39.642;22.430;2023-06-14T12:59:41;8.00;;;2.38;;
65477;SDS011;53678;39.642;22.430;2023-06-14T13:02:14;5.50;;;2.05;;
65477;SDS011;53678;39.642;22.430;2023-06-14T13:04:41;5.43;;;2.38;;
65477;SDS011;53678;39.642;22.430;2023-06-14T13:07:06;3.75;;;2.13;;
65477;SDS011;53678;39.642;22.430;2023-06-14T13:09:34;4.40;;;2.22;;
65477;SDS011;53678;39.642;22.430;2023-06-14T13:12:00;4.88;;;2.55;;
65477;SDS011;53678;39.642;22.430;2023-06-14T13:14:27;3.08;;;2.20;;
65477;SDS011;53678;39.642;22.430;2023-06-14T13:16:53;3.45;;;2.60;;
65477;SDS011;53678;39.642;22.430;2023-06-14T13:19:20;4.07;;;2.47;;
65477;SDS011;53678;39.642;22.430;2023-06-14T13:21:47;3.50;;;2.03;;
65477;SDS011;53678;39.642;22.430;2023-06-14T13:24:13;3.78;;;2.20;;
65477;SDS011;53678;39.642;22.430;2023-06-14T13:26:40;4.25;;;2.35;;
65477;SDS011;53678;39.642;22.430;2023-06-14T13:29:07;3.53;;;2.13;;
65477;SDS011;53678;39.642;22.430;2023-06-14T13:31:32;4.90;;;2.20;;
65477;SDS011;53678;39.642;22.430;2023-06-14T13:33:59;5.07;;;2.55;;
65477;SDS011;53678;39.642;22.430;2023-06-14T13:36:26;3.28;;;2.08;;
65477;SDS011;53678;39.642;22.430;2023-06-14T13:38:52;6.43;;;2.45;;
65477;SDS011;53678;39.642;22.430;2023-06-14T13:41:21;4.10;;;2.30;;
65477;SDS011;53678;39.642;22.430;2023-06-14T13:43:46;5.50;;;2.40;;
65477;SDS011;53678;39.642;22.430;2023-06-14T13:46:13;5.43;;;2.22;;
65477;SDS011;53678;39.642;22.430;2023-06-14T13:48:39;4.68;;;2.47;;
65477;SDS011;53678;39.642;22.430;2023-06-14T13:51:05;4.53;;;2.28;;
65477;SDS011;53678;39.642;22.430;2023-06-14T13:53:30;4.32;;;2.28;;
65477;SDS011;53678;39.642;22.430;2023-06-14T13:55:57;4.25;;;2.40;;
65477;SDS011;53678;39.642;22.430;2023-06-14T13:58:24;6.85;;;2.40;;
65477;SDS011;53678;39.642;22.430;2023-06-14T14:00:50;4.35;;;2.17;;
65477;SDS011;53678;39.642;22.430;2023-06-14T14:03:16;4.03;;;2.55;;
65477;SDS011;53678;39.642;22.430;2023-06-14T14:05:42;4.38;;;2.40;;
65477;SDS011;53678;39.642;22.430;2023-06-14T14:08:07;4.30;;;2.17;;
65477;SDS011;53678;39.642;22.430;2023-06-14T14:10:33;4.25;;;2.20;;
65477;SDS011;53678;39.642;22.430;2023-06-14T14:13:00;3.42;;;2.53;;
65477;SDS011;53678;39.642;22.430;2023-06-14T14:15:27;3.88;;;2.40;;
65477;SDS011;53678;39.642;22.430;2023-06-14T14:17:55;3.53;;;2.20;;
65477;SDS011;53678;39.642;22.430;2023-06-14T14:20:22;6.70;;;2.72;;
65477;SDS011;53678;39.642;22.430;2023-06-14T14:22:48;4.45;;;2.33;;
65477;SDS011;53678;39.642;22.430;2023-06-14T14:25:14;5.47;;;2.25;;
65477;SDS011;53678;39.642;22.430;2023-06-14T14:27:40;6.10;;;2.30;;
65477;SDS011;53678;39.642;22.430;2023-06-14T14:30:06;2.92;;;1.98;;
65477;SDS011;53678;39.642;22.430;2023-06-14T14:32:33;3.63;;;2.60;;
65477;SDS011;53678;39.642;22.430;2023-06-14T14:34:58;5.50;;;2.53;;
65477;SDS011;53678;39.642;22.430;2023-06-14T14:37:24;5.88;;;2.42;;
65477;SDS011;53678;39.642;22.430;2023-06-14T14:39:50;12.30;;;2.67;;
65477;SDS011;53678;39.642;22.430;2023-06-14T14:42:16;6.85;;;2.40;;
65477;SDS011;53678;39.642;22.430;2023-06-14T14:44:43;5.72;;;2.63;;
65477;SDS011;53678;39.642;22.430;2023-06-14T14:47:09;5.53;;;2.40;;
65477;SDS011;53678;39.642;22.430;2023-06-14T14:49:35;4.22;;;2.55;;
65477;SDS011;53678;39.642;22.430;2023-06-14T14:52:01;4.55;;;2.80;;
65477;SDS011;53678;39.642;22.430;2023-06-14T14:54:28;5.43;;;2.58;;
65477;SDS011;53678;39.642;22.430;2023-06-14T14:56:54;3.63;;;2.30;;